Time;durP1;ratioP1;P1;durP2;ratioP2;P2;SDS_P1;SDS_P2;PMS_P1;PMS_P2;Temp;Humidity;BMP_temperature;BMP_pressure;BME280_temperature;BME280_humidity;BME280_pressure;Samples;Min_cycle;Max_cycle;Signal;HPM_P1;HPM_P2
2022/08/23 00:01:07;;;;;;;5.75;2.78;;;;;;;;;;5062949;28;20037;-65
2022/08/23 00:03:32;;;;;;;8.25;3.00;;;;;;;;;;5064533;28;20040;-65
2022/08/23 00:05:58;;;;;;;8.73;2.92;;;;;;;;;;5063774;28;20025;-65
2022/08/23 00:08:23;;;;;;;5.57;2.75;;;;;;;;;;5064654;28;21395;-65
2022/08/23 00:10:48;;;;;;;9.63;2.70;;;;;;;;;;5063165;28;20529;-65
2022/08/23 00:13:13;;;;;;;8.02;2.70;;;;;;;;;;5069386;28;20443;-65
2022/08/23 00:15:39;;;;;;;6.18;2.70;;;;;;;;;;5063334;28;20020;-65
2022/08/23 00:18:04;;;;;;;5.60;2.80;;;;;;;;;;5069834;28;20027;-65
2022/08/23 00:20:29;;;;;;;8.90;2.70;;;;;;;;;;5067384;28;20083;-65
2022/08/23 00:22:56;;;;;;;7.03;2.50;;;;;;;;;;5063816;28;20028;-65
2022/08/23 00:25:22;;;;;;;7.40;2.85;;;;;;;;;;5064204;28;20024;-65
2022/08/23 00:27:47;;;;;;;7.25;2.50;;;;;;;;;;5064828;28;20039;-65
2022/08/23 00:30:12;;;;;;;7.65;2.63;;;;;;;;;;5081319;28;20023;-65
2022/08/23 00:32:39;;;;;;;8.23;2.53;;;;;;;;;;5083464;28;20020;-65
2022/08/23 00:35:05;;;;;;;6.75;2.70;;;;;;;;;;5075576;28;20016;-65
2022/08/23 00:37:31;;;;;;;7.05;2.50;;;;;;;;;;5075533;28;20023;-65
2022/08/23 00:39:56;;;;;;;6.53;2.20;;;;;;;;;;5075184;28;20376;-66
2022/08/23 00:48:02;;;;;;;8.45;2.47;;;;;;;;;;5086412;28;20031;-65
2022/08/23 00:50:37;;;;;;;6.25;2.03;;;;;;;;;;5079194;28;20482;-65
2022/08/23 00:53:10;;;;;;;8.00;2.38;;;;;;;;;;5083620;28;20480;-65
2022/08/23 00:55:36;;;;;;;6.47;2.38;;;;;;;;;;5073763;28;20016;-65
2022/08/23 00:58:02;;;;;;;5.10;2.22;;;;;;;;;;5082643;28;20369;-65
2022/08/23 01:00:28;;;;;;;9.20;2.38;;;;;;;;;;5085544;28;20558;-65
2022/08/23 01:02:53;;;;;;;8.57;2.13;;;;;;;;;;5081617;28;20155;-65
2022/08/23 01:05:20;;;;;;;7.53;2.53;;;;;;;;;;5063866;28;20443;-65
2022/08/23 01:07:45;;;;;;;6.18;2.20;;;;;;;;;;5069354;28;20373;-65
2022/08/23 01:10:20;;;;;;;7.32;2.40;;;;;;;;;;5076198;28;20095;-65
2022/08/23 01:12:47;;;;;;;9.57;2.22;;;;;;;;;;5078486;28;20048;-65
2022/08/23 01:15:16;;;;;;;5.45;2.30;;;;;;;;;;5073647;28;20028;-65
2022/08/23 01:17:44;;;;;;;6.45;2.30;;;;;;;;;;5078251;28;20099;-65
2022/08/23 01:20:11;;;;;;;6.07;2.20;;;;;;;;;;5075311;28;20024;-65
2022/08/23 01:22:40;;;;;;;6.05;2.40;;;;;;;;;;5082302;28;20047;-65
2022/08/23 01:25:07;;;;;;;5.90;2.50;;;;;;;;;;5078102;28;20369;-65
2022/08/23 01:27:32;;;;;;;9.90;2.92;;;;;;;;;;5070236;28;20108;-65
2022/08/23 01:29:57;;;;;;;7.22;2.40;;;;;;;;;;5068818;28;20103;-65
2022/08/23 01:32:24;;;;;;;6.82;2.47;;;;;;;;;;5072860;28;20020;-66
2022/08/23 01:34:49;;;;;;;6.30;2.42;;;;;;;;;;5076114;28;20546;-65
2022/08/23 01:37:15;;;;;;;8.30;2.50;;;;;;;;;;5080108;28;20020;-65
2022/08/23 01:39:40;;;;;;;6.55;2.20;;;;;;;;;;5076520;28;20496;-65
2022/08/23 01:42:06;;;;;;;7.22;2.70;;;;;;;;;;5075270;28;20024;-65
2022/08/23 01:44:32;;;;;;;8.27;3.00;;;;;;;;;;5084432;28;20096;-65
2022/08/23 01:46:57;;;;;;;12.40;2.88;;;;;;;;;;5090671;28;20041;-65
2022/08/23 01:49:23;;;;;;;8.18;2.13;;;;;;;;;;5111632;28;20482;-65
2022/08/23 01:51:48;;;;;;;9.13;2.33;;;;;;;;;;5083064;28;20024;-65
2022/08/23 01:54:13;;;;;;;6.43;2.30;;;;;;;;;;5083515;28;20060;-65
2022/08/23 01:56:39;;;;;;;6.90;2.20;;;;;;;;;;5083538;28;20024;-66
2022/08/23 01:59:05;;;;;;;8.98;2.20;;;;;;;;;;5074547;28;20036;-65
2022/08/23 02:01:31;;;;;;;8.77;2.40;;;;;;;;;;5074480;28;20028;-65
2022/08/23 02:03:56;;;;;;;6.68;2.40;;;;;;;;;;5076828;28;20372;-65
2022/08/23 02:06:21;;;;;;;9.90;2.90;;;;;;;;;;5086834;28;20082;-65
2022/08/23 02:09:02;;;;;;;8.00;2.60;;;;;;;;;;5079579;28;20028;-65
2022/08/23 02:11:32;;;;;;;10.13;2.40;;;;;;;;;;5075809;28;20017;-66
2022/08/23 02:13:59;;;;;;;9.07;2.78;;;;;;;;;;5077738;28;20024;-65
2022/08/23 02:16:29;;;;;;;7.70;2.60;;;;;;;;;;5080666;28;20374;-65
2022/08/23 02:18:55;;;;;;;9.90;2.60;;;;;;;;;;5079597;28;20050;-65
2022/08/23 02:21:21;;;;;;;8.50;2.83;;;;;;;;;;5087792;28;20123;-65
2022/08/23 02:23:46;;;;;;;9.82;2.67;;;;;;;;;;5082669;28;20043;-65
2022/08/23 02:26:12;;;;;;;7.45;2.72;;;;;;;;;;5097529;28;20020;-65
2022/08/23 02:28:37;;;;;;;5.38;2.60;;;;;;;;;;5077846;28;20017;-65
2022/08/23 02:31:02;;;;;;;8.90;2.78;;;;;;;;;;5077170;28;20028;-65
2022/08/23 02:33:28;;;;;;;8.60;2.50;;;;;;;;;;5089225;28;20020;-65
2022/08/23 02:35:53;;;;;;;6.75;2.65;;;;;;;;;;5090338;28;20075;-66
2022/08/23 02:38:18;;;;;;;17.00;2.97;;;;;;;;;;5079082;28;20032;-65
2022/08/23 02:40:44;;;;;;;9.10;2.42;;;;;;;;;;5075878;28;20538;-65
2022/08/23 02:43:09;;;;;;;13.18;3.72;;;;;;;;;;5073080;28;20051;-65
2022/08/23 02:45:35;;;;;;;6.85;2.88;;;;;;;;;;5075819;28;20053;-65
2022/08/23 02:48:00;;;;;;;7.30;2.40;;;;;;;;;;5076294;28;20411;-65
2022/08/23 02:50:25;;;;;;;8.18;2.58;;;;;;;;;;5074693;28;20020;-65
2022/08/23 02:52:52;;;;;;;6.72;2.92;;;;;;;;;;5075037;28;20024;-65
2022/08/23 02:55:17;;;;;;;6.00;2.50;;;;;;;;;;5073431;28;20110;-65
2022/08/23 02:57:43;;;;;;;5.97;2.60;;;;;;;;;;5077997;28;20595;-65
2022/08/23 03:00:10;;;;;;;5.45;2.60;;;;;;;;;;5075642;28;20102;-65
2022/08/23 03:02:35;;;;;;;9.18;2.90;;;;;;;;;;5077837;28;20036;-66
2022/08/23 03:05:01;;;;;;;9.48;2.90;;;;;;;;;;5085815;28;20039;-66
2022/08/23 03:07:27;;;;;;;6.28;2.80;;;;;;;;;;5072377;28;20096;-66
2022/08/23 03:09:52;;;;;;;7.55;3.20;;;;;;;;;;5076443;28;20023;-65
2022/08/23 03:12:17;;;;;;;8.13;3.33;;;;;;;;;;5072177;28;20107;-65
2022/08/23 03:14:42;;;;;;;6.32;2.75;;;;;;;;;;5076779;28;20035;-65
2022/08/23 03:17:08;;;;;;;8.02;2.80;;;;;;;;;;5076522;28;20027;-65
2022/08/23 03:19:33;;;;;;;9.30;3.10;;;;;;;;;;5091859;28;20106;-65
2022/08/23 03:21:59;;;;;;;7.53;2.92;;;;;;;;;;5074103;28;20103;-65
2022/08/23 03:24:24;;;;;;;11.00;3.30;;;;;;;;;;5076083;28;20028;-65
2022/08/23 03:26:50;;;;;;;7.80;2.85;;;;;;;;;;5074493;28;20020;-65
2022/08/23 03:29:15;;;;;;;6.13;2.80;;;;;;;;;;5077911;28;20023;-65
2022/08/23 03:31:40;;;;;;;15.77;3.08;;;;;;;;;;5077495;28;20020;-65
2022/08/23 03:34:06;;;;;;;6.82;3.03;;;;;;;;;;5079010;28;20099;-66
2022/08/23 03:36:31;;;;;;;6.78;3.22;;;;;;;;;;5077114;28;20491;-65
2022/08/23 03:38:56;;;;;;;9.65;3.03;;;;;;;;;;5079529;28;20441;-65
2022/08/23 03:41:21;;;;;;;6.32;3.00;;;;;;;;;;5084143;28;20032;-65
2022/08/23 03:43:47;;;;;;;12.57;3.30;;;;;;;;;;5073600;28;20381;-65
2022/08/23 03:46:21;;;;;;;7.88;3.17;;;;;;;;;;5072089;28;20047;-65
2022/08/23 03:48:48;;;;;;;11.95;3.50;;;;;;;;;;5074742;28;20433;-65
2022/08/23 03:51:13;;;;;;;8.95;3.33;;;;;;;;;;5078404;28;20036;-65
2022/08/23 03:53:38;;;;;;;10.68;3.55;;;;;;;;;;5072824;28;20404;-65
2022/08/23 03:56:03;;;;;;;8.98;3.50;;;;;;;;;;5075267;28;20043;-65
2022/08/23 03:58:29;;;;;;;11.90;3.70;;;;;;;;;;5075500;28;20032;-65
2022/08/23 04:00:54;;;;;;;9.50;3.58;;;;;;;;;;5072606;28;20025;-64
2022/08/23 04:03:19;;;;;;;7.60;3.53;;;;;;;;;;5073967;28;20020;-65
2022/08/23 04:05:45;;;;;;;9.05;3.53;;;;;;;;;;5078972;28;20025;-65
2022/08/23 04:08:11;;;;;;;8.07;3.47;;;;;;;;;;5076266;28;20400;-65
2022/08/23 04:10:37;;;;;;;6.32;3.55;;;;;;;;;;5085470;28;20035;-65
2022/08/23 04:13:03;;;;;;;8.00;3.72;;;;;;;;;;5081583;28;20084;-66
2022/08/23 04:15:29;;;;;;;10.32;3.20;;;;;;;;;;5079040;28;20107;-65
2022/08/23 04:17:57;;;;;;;8.88;3.30;;;;;;;;;;5080878;28;20532;-65
2022/08/23 04:20:22;;;;;;;9.32;3.70;;;;;;;;;;5077437;28;20039;-65
2022/08/23 04:22:50;;;;;;;6.97;3.50;;;;;;;;;;5075748;28;20114;-66
2022/08/23 04:25:15;;;;;;;8.27;4.05;;;;;;;;;;5074997;28;20017;-65
2022/08/23 04:27:40;;;;;;;10.95;3.45;;;;;;;;;;5073443;28;20368;-65
2022/08/23 04:30:06;;;;;;;9.98;3.58;;;;;;;;;;5074261;28;20479;-65
2022/08/23 04:32:31;;;;;;;8.60;3.50;;;;;;;;;;5075865;28;20472;-65
2022/08/23 04:34:57;;;;;;;9.27;3.90;;;;;;;;;;5074385;28;20024;-65
2022/08/23 04:37:22;;;;;;;11.70;3.50;;;;;;;;;;5073065;28;20491;-65
2022/08/23 04:42:31;;;;;;;8.43;3.40;;;;;;;;;;5070245;28;20028;-65
2022/08/23 04:44:56;;;;;;;8.27;3.50;;;;;;;;;;5078389;28;20016;-65
2022/08/23 04:47:22;;;;;;;8.25;3.30;;;;;;;;;;5083335;28;20022;-66
2022/08/23 04:49:48;;;;;;;6.68;2.92;;;;;;;;;;5076566;28;20032;-65
2022/08/23 04:52:13;;;;;;;10.40;3.55;;;;;;;;;;5079999;28;20032;-65
2022/08/23 04:54:39;;;;;;;7.30;3.47;;;;;;;;;;5074408;28;20028;-65
2022/08/23 04:57:04;;;;;;;12.80;3.83;;;;;;;;;;5079170;28;20060;-65
2022/08/23 04:59:29;;;;;;;12.20;3.58;;;;;;;;;;5073922;28;20020;-65
2022/08/23 05:01:54;;;;;;;9.07;3.53;;;;;;;;;;5082397;28;20028;-65
2022/08/23 05:04:20;;;;;;;7.65;3.67;;;;;;;;;;5086204;28;20025;-65
2022/08/23 05:06:46;;;;;;;8.88;3.25;;;;;;;;;;5082287;28;20024;-66
2022/08/23 05:09:13;;;;;;;8.35;3.22;;;;;;;;;;5076575;28;20017;-66
2022/08/23 05:11:38;;;;;;;9.57;3.10;;;;;;;;;;5080377;28;20099;-66
2022/08/23 05:14:04;;;;;;;8.02;2.95;;;;;;;;;;5082527;28;20128;-66
2022/08/23 05:16:29;;;;;;;7.35;2.90;;;;;;;;;;5081983;28;20028;-65
2022/08/23 05:18:54;;;;;;;9.18;3.05;;;;;;;;;;5082554;28;20033;-66
2022/08/23 05:21:22;;;;;;;7.57;3.08;;;;;;;;;;5077469;28;20028;-66
2022/08/23 05:23:47;;;;;;;9.55;3.03;;;;;;;;;;5090914;28;20043;-65
2022/08/23 05:26:13;;;;;;;9.98;2.95;;;;;;;;;;5074389;28;20020;-65
2022/08/23 05:28:40;;;;;;;11.38;3.10;;;;;;;;;;5079149;28;20475;-65
2022/08/23 05:31:13;;;;;;;6.28;2.70;;;;;;;;;;5079666;28;20036;-66
2022/08/23 05:33:39;;;;;;;7.25;2.95;;;;;;;;;;5093251;28;20027;-66
2022/08/23 05:36:05;;;;;;;6.80;2.72;;;;;;;;;;5086653;28;20024;-65
2022/08/23 05:38:31;;;;;;;6.88;2.60;;;;;;;;;;5075697;28;20058;-66
2022/08/23 05:40:57;;;;;;;7.30;2.58;;;;;;;;;;5090752;28;20046;-65
2022/08/23 05:43:23;;;;;;;9.35;2.85;;;;;;;;;;5083649;28;20432;-66
2022/08/23 05:45:57;;;;;;;9.43;2.80;;;;;;;;;;5077125;28;20027;-65
2022/08/23 05:48:23;;;;;;;9.15;2.95;;;;;;;;;;5079450;28;20383;-66
2022/08/23 05:50:48;;;;;;;7.95;2.88;;;;;;;;;;5078504;28;20108;-65
2022/08/23 05:53:13;;;;;;;6.03;2.97;;;;;;;;;;5073963;28;20075;-66
2022/08/23 05:55:38;;;;;;;5.75;2.60;;;;;;;;;;5074331;28;20035;-66
2022/08/23 05:58:04;;;;;;;8.27;3.05;;;;;;;;;;5073997;28;20040;-65
2022/08/23 06:00:29;;;;;;;6.45;2.50;;;;;;;;;;5074160;28;20028;-65
2022/08/23 06:02:54;;;;;;;8.70;3.45;;;;;;;;;;5073995;28;20056;-65
2022/08/23 06:05:20;;;;;;;6.82;2.60;;;;;;;;;;5073966;28;20497;-66
2022/08/23 06:07:45;;;;;;;10.40;2.75;;;;;;;;;;5073614;28;20381;-66
2022/08/23 06:10:10;;;;;;;10.68;3.00;;;;;;;;;;5073502;28;20154;-66
2022/08/23 06:12:35;;;;;;;11.00;3.33;;;;;;;;;;5082397;28;20020;-66
2022/08/23 06:15:01;;;;;;;6.20;2.92;;;;;;;;;;5073566;28;20024;-66
2022/08/23 06:17:26;;;;;;;7.43;2.90;;;;;;;;;;5073569;28;20024;-66
2022/08/23 06:19:52;;;;;;;12.75;2.72;;;;;;;;;;5072555;28;20107;-66
2022/08/23 06:22:17;;;;;;;8.27;2.70;;;;;;;;;;5098472;28;20020;-66
2022/08/23 06:24:42;;;;;;;6.82;2.47;;;;;;;;;;5114370;28;20410;-67
2022/08/23 06:27:08;;;;;;;9.52;2.58;;;;;;;;;;5113706;28;20175;-66
2022/08/23 06:29:33;;;;;;;4.47;2.10;;;;;;;;;;5110319;28;20106;-67
2022/08/23 06:31:58;;;;;;;5.53;2.20;;;;;;;;;;5073584;28;20092;-66
2022/08/23 06:34:25;;;;;;;9.05;2.08;;;;;;;;;;5073396;28;20046;-67
2022/08/23 06:36:52;;;;;;;6.70;1.98;;;;;;;;;;5073423;28;20472;-66
2022/08/23 06:39:18;;;;;;;8.13;2.38;;;;;;;;;;5072942;28;20099;-66
2022/08/23 06:41:44;;;;;;;5.78;1.88;;;;;;;;;;5073115;28;20059;-67
2022/08/23 06:44:09;;;;;;;4.72;2.00;;;;;;;;;;5083770;28;20032;-67
2022/08/23 06:46:35;;;;;;;7.03;2.30;;;;;;;;;;5091589;28;20024;-66
2022/08/23 06:49:03;;;;;;;5.88;2.30;;;;;;;;;;5072795;28;20020;-66
2022/08/23 06:51:31;;;;;;;7.40;2.50;;;;;;;;;;5072758;28;20032;-67
2022/08/23 06:53:58;;;;;;;6.93;2.25;;;;;;;;;;5072623;28;20036;-67
2022/08/23 06:56:24;;;;;;;6.53;2.30;;;;;;;;;;5072638;28;20073;-66
2022/08/23 06:58:50;;;;;;;5.97;2.03;;;;;;;;;;5072949;28;20099;-70
2022/08/23 07:01:15;;;;;;;7.93;2.08;;;;;;;;;;5072565;28;20135;-66
2022/08/23 07:03:41;;;;;;;4.63;2.00;;;;;;;;;;5073351;28;20017;-67
2022/08/23 07:06:06;;;;;;;5.50;2.05;;;;;;;;;;5072892;28;20101;-66
2022/08/23 07:08:32;;;;;;;5.07;1.88;;;;;;;;;;5072596;28;20012;-66
2022/08/23 07:10:57;;;;;;;5.88;2.00;;;;;;;;;;5092133;28;20046;-66
2022/08/23 07:13:22;;;;;;;5.63;2.13;;;;;;;;;;5092973;28;20032;-66
2022/08/23 07:15:47;;;;;;;9.25;2.03;;;;;;;;;;5092823;28;20047;-66
2022/08/23 07:18:13;;;;;;;8.02;2.22;;;;;;;;;;5092865;28;20052;-67
2022/08/23 07:20:38;;;;;;;7.53;2.03;;;;;;;;;;5091383;28;20074;-67
2022/08/23 07:23:04;;;;;;;8.25;2.13;;;;;;;;;;5105366;28;20011;-67
2022/08/23 07:25:29;;;;;;;6.82;2.00;;;;;;;;;;5109613;28;20095;-67
2022/08/23 07:27:55;;;;;;;7.00;2.08;;;;;;;;;;5112866;28;20024;-67
2022/08/23 07:30:20;;;;;;;9.30;2.13;;;;;;;;;;5112222;28;20011;-66
2022/08/23 07:32:45;;;;;;;6.60;2.03;;;;;;;;;;5112708;28;20033;-67
2022/08/23 07:35:10;;;;;;;5.00;1.70;;;;;;;;;;5112275;28;20060;-67
2022/08/23 07:37:36;;;;;;;9.00;1.80;;;;;;;;;;5107524;28;20023;-66
2022/08/23 07:40:02;;;;;;;7.80;2.00;;;;;;;;;;5072095;28;20357;-66
2022/08/23 07:42:28;;;;;;;9.68;2.10;;;;;;;;;;5071654;28;20032;-67
2022/08/23 07:44:53;;;;;;;6.32;1.70;;;;;;;;;;5072139;28;20017;-66
2022/08/23 07:47:19;;;;;;;9.18;2.10;;;;;;;;;;5071901;28;20112;-66
2022/08/23 07:49:45;;;;;;;9.15;1.63;;;;;;;;;;5071765;28;20108;-66
2022/08/23 07:52:10;;;;;;;5.18;1.63;;;;;;;;;;5092075;28;20040;-69
2022/08/23 07:54:36;;;;;;;5.55;1.70;;;;;;;;;;5090289;28;20110;-66
2022/08/23 07:57:01;;;;;;;6.53;1.90;;;;;;;;;;5087844;28;20027;-66
2022/08/23 07:59:26;;;;;;;4.45;1.60;;;;;;;;;;5073767;28;20023;-66
2022/08/23 08:01:52;;;;;;;5.30;1.88;;;;;;;;;;5091939;28;20032;-67
2022/08/23 08:04:17;;;;;;;6.88;1.65;;;;;;;;;;5092159;28;20099;-67
2022/08/23 08:06:47;;;;;;;12.90;2.63;;;;;;;;;;5092198;28;20127;-66
2022/08/23 08:09:14;;;;;;;6.45;1.73;;;;;;;;;;5091956;28;20530;-66
2022/08/23 08:11:40;;;;;;;8.68;1.60;;;;;;;;;;5091767;28;20032;-66
2022/08/23 08:14:06;;;;;;;5.88;1.70;;;;;;;;;;5071435;28;20043;-66
2022/08/23 08:16:41;;;;;;;6.70;1.63;;;;;;;;;;5071381;28;20035;-66
2022/08/23 08:19:08;;;;;;;4.93;1.70;;;;;;;;;;5071833;28;20376;-66
2022/08/23 08:21:34;;;;;;;12.27;1.70;;;;;;;;;;5084807;28;20099;-67
2022/08/23 08:23:59;;;;;;;4.95;1.38;;;;;;;;;;5111785;28;20431;-67
2022/08/23 08:26:26;;;;;;;4.93;1.40;;;;;;;;;;5111956;28;20020;-66
2022/08/23 08:28:51;;;;;;;8.77;1.77;;;;;;;;;;5102820;28;20019;-66
2022/08/23 08:31:17;;;;;;;7.55;1.60;;;;;;;;;;5071203;28;20024;-66
2022/08/23 08:33:43;;;;;;;7.30;1.40;;;;;;;;;;5071224;28;20074;-66
2022/08/23 08:36:26;;;;;;;6.38;1.50;;;;;;;;;;5071340;28;20028;-65
2022/08/23 08:38:51;;;;;;;4.90;1.60;;;;;;;;;;5071127;28;20032;-66
2022/08/23 08:41:17;;;;;;;6.47;1.30;;;;;;;;;;5071215;28;20037;-66
2022/08/23 08:43:48;;;;;;;4.13;1.35;;;;;;;;;;5092652;28;20472;-66
2022/08/23 08:46:21;;;;;;;7.53;1.50;;;;;;;;;;5088204;28;20013;-66
2022/08/23 08:48:48;;;;;;;10.63;1.40;;;;;;;;;;5074916;28;20028;-66
2022/08/23 08:51:25;;;;;;;5.68;1.60;;;;;;;;;;5075472;28;20025;-66
2022/08/23 08:53:51;;;;;;;7.45;1.70;;;;;;;;;;5074953;28;20041;-66
2022/08/23 08:56:22;;;;;;;5.55;1.40;;;;;;;;;;5075198;28;20056;-66
2022/08/23 08:58:49;;;;;;;6.03;1.55;;;;;;;;;;5074855;28;20025;-66
2022/08/23 09:01:18;;;;;;;9.80;1.50;;;;;;;;;;5074919;28;20028;-67
2022/08/23 09:03:43;;;;;;;5.70;1.60;;;;;;;;;;5085265;28;20121;-67
2022/08/23 09:06:18;;;;;;;4.53;1.50;;;;;;;;;;5094917;28;20442;-68
2022/08/23 09:08:55;;;;;;;4.80;1.50;;;;;;;;;;5095068;28;20012;-67
2022/08/23 09:11:23;;;;;;;4.60;1.50;;;;;;;;;;5095063;28;20024;-67
2022/08/23 09:13:55;;;;;;;5.22;1.40;;;;;;;;;;5095329;28;20020;-69
2022/08/23 09:16:23;;;;;;;5.15;1.52;;;;;;;;;;5094962;28;20031;-67
2022/08/23 09:18:50;;;;;;;6.13;1.50;;;;;;;;;;5095135;28;20028;-67
2022/08/23 09:21:16;;;;;;;6.90;1.73;;;;;;;;;;5089577;28;20020;-67
2022/08/23 09:23:43;;;;;;;5.35;1.60;;;;;;;;;;5095232;28;20024;-67
2022/08/23 09:26:25;;;;;;;8.82;1.77;;;;;;;;;;5097327;28;20417;-66
2022/08/23 09:28:54;;;;;;;9.43;1.60;;;;;;;;;;5094934;28;20020;-67
2022/08/23 09:31:38;;;;;;;5.20;1.52;;;;;;;;;;5094763;28;20020;-67
2022/08/23 09:34:04;;;;;;;10.00;1.65;;;;;;;;;;5094584;28;20027;-66
2022/08/23 09:36:36;;;;;;;6.50;1.60;;;;;;;;;;5093369;28;20027;-66
2022/08/23 09:39:07;;;;;;;5.75;1.23;;;;;;;;;;5074407;28;20436;-66
2022/08/23 09:41:40;;;;;;;4.97;1.42;;;;;;;;;;5074100;28;20031;-67
2022/08/23 09:44:07;;;;;;;6.35;1.40;;;;;;;;;;5074034;28;20031;-67
2022/08/23 09:46:34;;;;;;;3.88;1.42;;;;;;;;;;5074313;28;20066;-66
2022/08/23 09:49:19;;;;;;;6.10;1.20;;;;;;;;;;5074122;28;20104;-67
2022/08/23 09:51:45;;;;;;;4.53;1.60;;;;;;;;;;5074422;28;20688;-67
2022/08/23 09:54:10;;;;;;;5.25;1.63;;;;;;;;;;5074295;28;20033;-66
2022/08/23 09:56:45;;;;;;;6.43;1.23;;;;;;;;;;5099648;28;20471;-66
2022/08/23 09:59:21;;;;;;;7.40;1.95;;;;;;;;;;5114514;28;20016;-66
2022/08/23 10:01:48;;;;;;;6.18;1.63;;;;;;;;;;5114784;28;20015;-66
2022/08/23 10:04:15;;;;;;;5.68;1.42;;;;;;;;;;5114911;28;20019;-66
2022/08/23 10:06:42;;;;;;;5.97;1.50;;;;;;;;;;5111194;28;20049;-66
2022/08/23 10:09:08;;;;;;;6.78;1.80;;;;;;;;;;5114237;28;20026;-66
2022/08/23 10:11:37;;;;;;;6.78;1.58;;;;;;;;;;5093628;28;20111;-67
2022/08/23 10:14:02;;;;;;;7.68;1.40;;;;;;;;;;5073698;28;20021;-66
2022/08/23 10:16:30;;;;;;;6.90;1.40;;;;;;;;;;5055798;28;20032;-66
2022/08/23 10:18:55;;;;;;;3.85;1.27;;;;;;;;;;5073416;28;20027;-66
2022/08/23 10:21:47;;;;;;;6.97;1.30;;;;;;;;;;5073509;28;20020;-66
2022/08/23 10:24:15;;;;;;;5.85;1.20;;;;;;;;;;5035936;28;20278;-66
2022/08/23 10:26:59;;;;;;;7.45;1.35;;;;;;;;;;5079713;28;20028;-66
2022/08/23 10:29:36;;;;;;;5.20;1.30;;;;;;;;;;5078315;28;20077;-66
2022/08/23 10:32:36;;;;;;;7.45;1.23;;;;;;;;;;5076393;28;20054;-66
2022/08/23 10:35:21;;;;;;;5.35;1.52;;;;;;;;;;5002633;28;20053;-66
2022/08/23 10:37:57;;;;;;;5.53;1.30;;;;;;;;;;5067536;28;20101;-66
2022/08/23 10:40:27;;;;;;;5.15;1.30;;;;;;;;;;5084792;28;20103;-67
2022/08/23 10:42:57;;;;;;;9.02;1.42;;;;;;;;;;5085017;28;20399;-66
2022/08/23 10:45:34;;;;;;;3.83;1.35;;;;;;;;;;5081824;28;20043;-65
2022/08/23 10:48:02;;;;;;;4.80;1.40;;;;;;;;;;5092780;28;20020;-65
2022/08/23 10:50:34;;;;;;;6.57;1.30;;;;;;;;;;5087054;28;20484;-66
2022/08/23 10:53:07;;;;;;;6.30;1.33;;;;;;;;;;5078327;28;20032;-66
2022/08/23 10:55:43;;;;;;;5.30;1.52;;;;;;;;;;5079241;28;20426;-66
2022/08/23 10:58:26;;;;;;;6.03;1.45;;;;;;;;;;5086934;28;20078;-66
2022/08/23 11:00:52;;;;;;;7.07;1.30;;;;;;;;;;5079356;28;20020;-66
2022/08/23 11:03:18;;;;;;;5.10;1.60;;;;;;;;;;5073321;28;20465;-66
2022/08/23 11:06:03;;;;;;;11.40;1.63;;;;;;;;;;5072125;28;20078;-66
2022/08/23 11:08:37;;;;;;;5.80;1.52;;;;;;;;;;5087203;28;20051;-66
2022/08/23 11:11:02;;;;;;;7.70;1.30;;;;;;;;;;5092994;28;20028;-66
2022/08/23 11:13:29;;;;;;;5.22;1.40;;;;;;;;;;5093076;28;20428;-66
2022/08/23 11:15:59;;;;;;;5.97;1.50;;;;;;;;;;5092916;28;20016;-67
2022/08/23 11:18:25;;;;;;;;;;;;;;;;;;5092885;28;20475;-66
2022/08/23 11:20:53;;;;;;;7.07;1.40;;;;;;;;;;5072606;28;19969;-67
2022/08/23 11:23:35;;;;;;;11.35;1.38;;;;;;;;;;5072167;28;20024;-66
2022/08/23 11:26:01;;;;;;;3.72;1.40;;;;;;;;;;5072479;28;20075;-67
2022/08/23 11:28:26;;;;;;;6.20;1.25;;;;;;;;;;5072299;28;20016;-66
2022/08/23 11:30:55;;;;;;;6.60;1.58;;;;;;;;;;5086817;28;20020;-66
2022/08/23 11:33:23;;;;;;;8.50;1.65;;;;;;;;;;5092451;28;20020;-66
2022/08/23 11:36:15;;;;;;;8.15;1.40;;;;;;;;;;5088464;28;20021;-66
2022/08/23 11:38:46;;;;;;;10.07;1.48;;;;;;;;;;5072282;28;20157;-66
2022/08/23 11:41:14;;;;;;;4.05;1.48;;;;;;;;;;5072014;28;20035;-67
2022/08/23 11:43:42;;;;;;;8.43;1.50;;;;;;;;;;5072345;28;20108;-66
2022/08/23 11:46:15;;;;;;;4.20;1.65;;;;;;;;;;5072068;28;20095;-66
2022/08/23 11:48:42;;;;;;;7.03;1.55;;;;;;;;;;5072360;28;20514;-66
2022/08/23 11:51:07;;;;;;;4.15;1.55;;;;;;;;;;5072297;28;20025;-66
2022/08/23 11:53:33;;;;;;;5.03;1.60;;;;;;;;;;5072176;28;20693;-66
2022/08/23 11:55:58;;;;;;;4.25;1.45;;;;;;;;;;5083865;28;20081;-67
2022/08/23 11:58:43;;;;;;;4.57;1.43;;;;;;;;;;5112521;28;20080;-66
2022/08/23 12:01:09;;;;;;;8.48;1.58;;;;;;;;;;5112178;28;20727;-66
2022/08/23 12:03:51;;;;;;;3.25;1.52;;;;;;;;;;5112662;28;20112;-66
2022/08/23 12:06:19;;;;;;;5.80;1.80;;;;;;;;;;5112396;28;20018;-67
2022/08/23 12:08:56;;;;;;;5.10;1.40;;;;;;;;;;5112327;28;20024;-66
2022/08/23 12:11:23;;;;;;;4.32;1.77;;;;;;;;;;5078354;28;20090;-66
2022/08/23 12:13:48;;;;;;;5.85;1.60;;;;;;;;;;5071333;28;20118;-66
2022/08/23 12:16:14;;;;;;;7.00;1.30;;;;;;;;;;5071488;28;20032;-66
2022/08/23 12:18:46;;;;;;;5.85;1.30;;;;;;;;;;5071760;28;20674;-66
2022/08/23 12:21:20;;;;;;;5.65;1.40;;;;;;;;;;5071313;28;20070;-66
2022/08/23 12:23:47;;;;;;;4.80;1.50;;;;;;;;;;5071652;28;20046;-66
2022/08/23 12:26:21;;;;;;;8.57;1.38;;;;;;;;;;5071372;28;20530;-66
2022/08/23 12:28:48;;;;;;;3.78;1.52;;;;;;;;;;5071663;28;20017;-67
2022/08/23 12:31:24;;;;;;;5.22;1.30;;;;;;;;;;5071722;28;20020;-66
2022/08/23 12:34:05;;;;;;;5.85;1.50;;;;;;;;;;5071496;28;20385;-67
2022/08/23 12:36:53;;;;;;;4.75;1.20;;;;;;;;;;5071479;28;20423;-66
2022/08/23 12:39:31;;;;;;;4.53;1.45;;;;;;;;;;5060105;28;20032;-66
2022/08/23 12:42:23;;;;;;;4.60;1.25;;;;;;;;;;5089942;28;20108;-66
2022/08/23 12:44:57;;;;;;;6.05;1.25;;;;;;;;;;5073873;28;20021;-66
2022/08/23 12:47:23;;;;;;;3.78;1.30;;;;;;;;;;5071434;28;20481;-66
2022/08/23 12:50:11;;;;;;;4.47;1.40;;;;;;;;;;5070996;28;20036;-66
2022/08/23 12:52:36;;;;;;;6.22;1.45;;;;;;;;;;5072591;28;20036;-65
2022/08/23 12:55:10;;;;;;;5.55;1.17;;;;;;;;;;5091203;28;20422;-65
2022/08/23 12:57:37;;;;;;;14.73;1.50;;;;;;;;;;5070898;28;20025;-66
2022/08/23 13:00:14;;;;;;;4.07;1.45;;;;;;;;;;5071145;28;20476;-66
2022/08/23 13:02:46;;;;;;;4.82;1.42;;;;;;;;;;5071632;28;20120;-66
2022/08/23 13:05:15;;;;;;;8.05;1.42;;;;;;;;;;5071006;28;20016;-65
2022/08/23 13:07:40;;;;;;;6.10;1.40;;;;;;;;;;5071141;28;20051;-66
2022/08/23 13:10:07;;;;;;;4.72;1.30;;;;;;;;;;5071072;28;20012;-65
2022/08/23 13:12:32;;;;;;;4.38;1.40;;;;;;;;;;5070858;28;20024;-66
2022/08/23 13:15:00;;;;;;;4.68;1.30;;;;;;;;;;5071105;28;20055;-66
2022/08/23 13:17:25;;;;;;;5.22;1.40;;;;;;;;;;5071564;28;20059;-66
2022/08/23 13:20:09;;;;;;;7.68;1.40;;;;;;;;;;5071176;28;20020;-66
2022/08/23 13:22:34;;;;;;;7.90;1.40;;;;;;;;;;5070628;28;20089;-66
2022/08/23 13:25:03;;;;;;;6.75;1.40;;;;;;;;;;5071139;28;20043;-66
2022/08/23 13:27:36;;;;;;;8.10;1.50;;;;;;;;;;5070727;28;20123;-66
2022/08/23 13:30:07;;;;;;;5.28;1.65;;;;;;;;;;5074369;28;20507;-65
2022/08/23 13:32:36;;;;;;;6.22;1.50;;;;;;;;;;5074424;28;20028;-65
2022/08/23 13:35:19;;;;;;;5.35;1.30;;;;;;;;;;5086322;28;20062;-66
2022/08/23 13:37:45;;;;;;;5.47;1.55;;;;;;;;;;5074390;28;20025;-66
2022/08/23 13:40:14;;;;;;;7.40;1.33;;;;;;;;;;5074581;28;20028;-66
2022/08/23 13:42:48;;;;;;;4.13;1.30;;;;;;;;;;5074455;28;20377;-65
2022/08/23 13:45:14;;;;;;;6.85;1.20;;;;;;;;;;5074484;28;20023;-66
2022/08/23 13:47:44;;;;;;;4.13;1.40;;;;;;;;;;5074525;28;20017;-66
2022/08/23 13:50:20;;;;;;;3.72;1.30;;;;;;;;;;5074404;28;20021;-65
2022/08/23 13:52:45;;;;;;;6.68;1.40;;;;;;;;;;5074415;28;20040;-66
2022/08/23 13:55:11;;;;;;;4.78;1.55;;;;;;;;;;5076438;28;20024;-66
2022/08/23 13:57:37;;;;;;;3.70;1.20;;;;;;;;;;5114970;28;20697;-66
2022/08/23 14:00:03;;;;;;;5.05;1.20;;;;;;;;;;5111483;28;20037;-66
2022/08/23 14:02:28;;;;;;;8.20;1.58;;;;;;;;;;5096340;28;20519;-66
2022/08/23 14:04:54;;;;;;;5.13;1.30;;;;;;;;;;5114793;28;20103;-65
2022/08/23 14:07:19;;;;;;;5.07;1.40;;;;;;;;;;5115047;28;20278;-65
2022/08/23 14:09:45;;;;;;;5.45;1.65;;;;;;;;;;5090917;28;20082;-66
2022/08/23 14:12:12;;;;;;;3.35;1.23;;;;;;;;;;5073772;28;20032;-66
2022/08/23 14:14:38;;;;;;;5.30;1.50;;;;;;;;;;5073998;28;20431;-66
2022/08/23 14:17:04;;;;;;;4.47;1.60;;;;;;;;;;5073931;28;20024;-66
2022/08/23 14:19:30;;;;;;;4.30;1.38;;;;;;;;;;5073601;28;20024;-66
2022/08/23 14:21:56;;;;;;;3.42;1.30;;;;;;;;;;5073699;28;20526;-66
2022/08/23 14:24:21;;;;;;;7.18;1.50;;;;;;;;;;5092703;28;20028;-66
2022/08/23 14:26:46;;;;;;;4.67;1.40;;;;;;;;;;5082265;28;20040;-65
2022/08/23 14:29:11;;;;;;;3.65;1.30;;;;;;;;;;5073493;28;20290;-66
2022/08/23 14:31:37;;;;;;;4.30;1.40;;;;;;;;;;5073694;28;20687;-66
2022/08/23 14:34:02;;;;;;;9.30;1.58;;;;;;;;;;5080600;28;20013;-66
2022/08/23 14:36:28;;;;;;;5.85;1.60;;;;;;;;;;5093626;28;20012;-65
2022/08/23 14:38:53;;;;;;;6.95;1.45;;;;;;;;;;5093404;28;20046;-66
2022/08/23 14:41:20;;;;;;;4.93;1.33;;;;;;;;;;5092134;28;20101;-66
2022/08/23 14:43:45;;;;;;;4.25;1.35;;;;;;;;;;5081995;28;20532;-65
2022/08/23 14:46:11;;;;;;;7.20;1.30;;;;;;;;;;5073189;28;20111;-65
2022/08/23 14:48:36;;;;;;;8.55;1.63;;;;;;;;;;5073107;28;20388;-65
2022/08/23 14:51:02;;;;;;;4.40;1.60;;;;;;;;;;5075143;28;20029;-65
2022/08/23 14:53:28;;;;;;;5.85;1.50;;;;;;;;;;5086326;28;20056;-66
2022/08/23 14:55:53;;;;;;;4.53;1.60;;;;;;;;;;5085299;28;20043;-65